This is the latest recevied weather packets stored in our database for station/object SQ5OUZ-8. If no packets are shown the sender has not sent any weather packets the latest 10 day(s).
| Time | Temp. | Humidity | Pressure | Rain* | Wind** | Luminosity | Snow |
|---|---|---|---|---|---|---|---|
| 1778049793 | 22.22° C | 37% | 1006 hPa | - | - | - | - |
| 1778048718 | 23.33° C | 35% | 1006 hPa | - | - | - | - |
| 1778047715 | 21.11° C | 41% | 1006 hPa | - | - | - | - |
| 1778046532 | 17.22° C | 50% | 1006 hPa | - | - | - | - |
| 1778045551 | 16.67° C | 51% | 1007 hPa | - | - | - | - |
| 1778044452 | 16.67° C | 50% | 1007 hPa | - | - | - | - |
| 1778043297 | 16.11° C | 51% | 1007 hPa | - | - | - | - |
| 1778042029 | 15.56° C | 53% | 1007 hPa | - | - | - | - |
| 1778040875 | 13.89° C | 57% | 1007 hPa | - | - | - | - |
| 1778039685 | 13.33° C | 58% | 1007 hPa | - | - | - | - |
| 1778038548 | 13.89° C | 58% | 1007 hPa | - | - | - | - |
| 1778037387 | 13.89° C | 57% | 1007 hPa | - | - | - | - |
| 1778036429 | 14.44° C | 55% | 1007 hPa | - | - | - | - |
| 1778035297 | 14.44° C | 52% | 1007 hPa | - | - | - | - |
| 1778034113 | 15.56° C | 49% | 1007 hPa | - | - | - | - |
| 1778032968 | 16.11° C | 46% | 1007 hPa | - | - | - | - |
| 1778031991 | 16.11° C | 45% | 1007 hPa | - | - | - | - |
| 1778031012 | 16.67° C | 42% | 1007 hPa | - | - | - | - |
| 1778029953 | 16.67° C | 42% | 1007 hPa | - | - | - | - |
| 1778028985 | 16.11° C | 43% | 1007 hPa | - | - | - | - |
| 1778027858 | 16.11° C | 44% | 1007 hPa | - | - | - | - |
| 1778026783 | 16.11° C | 43% | 1007 hPa | - | - | - | - |
| 1778025718 | 16.11° C | 43% | 1007 hPa | - | - | - | - |
| 1778024599 | 16.67° C | 42% | 1007 hPa | - | - | - | - |
| 1778023433 | 16.67° C | 41% | 1007 hPa | - | - | - | - |
* Rain since midnight (hover to see other rain measurements)
** Current wind speed in m/s (hover to see current wind gust speed)